Time;durP1;ratioP1;P1;durP2;ratioP2;P2;SDS_P1;SDS_P2;PMS_P1;PMS_P2;Temp;Humidity;BMP_temperature;BMP_pressure;BME280_temperature;BME280_humidity;BME280_pressure;Samples;Min_cycle;Max_cycle;Signal;HPM_P1;HPM_P2
2024/01/31 00:00:07;;;;;;;;;;;;;;;3.97;100.00;102874.34;5136927;27;20374;-76
2024/01/31 00:02:32;;;;;;;;;;;;;;;3.94;100.00;102872.72;5140896;27;19919;-76
2024/01/31 00:04:57;;;;;;;;;;;;;;;3.92;100.00;102875.50;5144863;27;19923;-76
2024/01/31 00:07:23;;;;;;;;;;;;;;;3.91;100.00;102876.44;5135733;27;19930;-76
2024/01/31 00:09:48;;;;;;;;;;;;;;;3.92;100.00;102875.50;5133426;27;19931;-76
2024/01/31 00:12:13;;;;;;;;;;;;;;;3.93;100.00;102881.66;5141154;27;19926;-75
2024/01/31 00:14:38;;;;;;;;;;;;;;;3.92;100.00;102888.81;5151232;27;20342;-76
2024/01/31 00:17:03;;;;;;;;;;;;;;;3.90;100.00;102884.53;5140622;27;20341;-76
2024/01/31 00:19:29;;;;;;;;;;;;;;;3.91;100.00;102881.78;5141580;27;20346;-76
2024/01/31 00:21:54;;;;;;;;;;;;;;;3.90;100.00;102873.88;5137735;27;19920;-76
2024/01/31 00:24:22;;;;;;;;;;;;;;;3.91;100.00;102878.25;5144862;27;19943;-76
2024/01/31 00:26:47;;;;;;;;;;;;;;;3.85;100.00;102887.50;5141160;27;20515;-75
2024/01/31 00:29:15;;;;;;;;;;;;;;;3.79;100.00;102894.09;5151371;27;19919;-75
2024/01/31 00:31:41;;;;;;;;;;;;;;;3.74;100.00;102895.38;5142837;27;19919;-75
2024/01/31 00:34:06;;;;;;;;;;;;;;;3.70;100.00;102905.38;5145219;27;20376;-74
2024/01/31 00:36:32;;;;;;;;;;;;;;;3.70;100.00;102902.72;5140245;27;20782;-74
2024/01/31 00:38:59;;;;;;;;;;;;;;;3.71;100.00;102900.88;5135139;27;20015;-76
2024/01/31 00:41:24;;;;;;;;;;;;;;;3.67;100.00;102913.56;5148960;27;19962;-76
2024/01/31 00:43:50;;;;;;;;;;;;;;;3.68;100.00;102907.28;5160403;27;19944;-74
2024/01/31 00:46:15;;;;;;;;;;;;;;;3.69;100.00;102913.44;5155388;27;19923;-74
2024/01/31 00:48:42;;;;;;;;;;;;;;;3.73;100.00;102910.47;5150624;27;19925;-74
2024/01/31 00:51:13;;;;;;;;;;;;;;;3.76;100.00;102914.78;5122506;27;19988;-76
2024/01/31 00:53:38;;;;;;;;;;;;;;;3.74;100.00;102917.53;5128633;27;19927;-76
2024/01/31 00:56:04;;;;;;;;;;;;;;;3.71;100.00;102920.38;5137525;27;19984;-74
2024/01/31 00:58:29;;;;;;;;;;;;;;;3.74;100.00;102933.50;5135237;27;19919;-75
2024/01/31 01:00:54;;;;;;;;;;;;;;;3.78;100.00;102935.03;5133798;27;19919;-75
2024/01/31 01:03:19;;;;;;;;;;;;;;;3.79;100.00;102942.06;5152198;27;19919;-74
2024/01/31 01:05:45;;;;;;;;;;;;;;;3.81;100.00;102936.63;5136346;27;20030;-75
2024/01/31 01:08:10;;;;;;;;;;;;;;;3.79;100.00;102942.06;5154835;27;20613;-73
2024/01/31 01:10:35;;;;;;;;;;;;;;;3.78;100.00;102945.69;5150361;27;20018;-74
2024/01/31 01:13:01;;;;;;;;;;;;;;;3.71;100.00;102949.69;5145477;27;19919;-76
2024/01/31 01:15:26;;;;;;;;;;;;;;;3.71;100.00;102939.03;5147170;27;19987;-76
2024/01/31 01:17:51;;;;;;;;;;;;;;;3.67;100.00;102942.00;5156072;27;19934;-75
2024/01/31 01:20:17;;;;;;;;;;;;;;;3.67;100.00;102950.84;5138743;27;19919;-75
2024/01/31 01:22:42;;;;;;;;;;;;;;;3.64;100.00;102954.56;5145349;27;20039;-75
2024/01/31 01:25:08;;;;;;;;;;;;;;;3.58;100.00;102949.66;5142508;27;19966;-76
2024/01/31 01:27:34;;;;;;;;;;;;;;;3.58;100.00;102948.78;5154677;27;19925;-75
2024/01/31 01:29:59;;;;;;;;;;;;;;;3.59;100.00;102951.34;5147311;27;19919;-76
2024/01/31 01:32:25;;;;;;;;;;;;;;;3.52;100.00;102955.34;5139699;27;20385;-76
2024/01/31 01:34:50;;;;;;;;;;;;;;;3.56;100.00;102951.53;5147938;27;19919;-76
2024/01/31 01:37:15;;;;;;;;;;;;;;;3.54;100.00;102952.56;5145851;27;19920;-75
2024/01/31 01:39:45;;;;;;;;;;;;;;;3.52;100.00;102951.84;5148336;27;19950;-75
2024/01/31 01:42:10;;;;;;;;;;;;;;;3.51;100.00;102952.81;5140200;27;19926;-75
2024/01/31 01:44:36;;;;;;;;;;;;;;;3.45;100.00;102956.69;5138835;27;19920;-75
2024/01/31 01:47:01;;;;;;;;;;;;;;;3.44;100.00;102958.50;5112920;22;20375;-76
2024/01/31 01:49:26;;;;;;;;;;;;;;;3.44;100.00;102963.00;5115099;28;20329;-75
2024/01/31 01:51:51;;;;;;;;;;;;;;;3.42;100.00;102955.09;5095563;28;19998;-75
2024/01/31 01:54:17;;;;;;;;;;;;;;;3.40;100.00;102956.16;5094447;28;19920;-75
2024/01/31 01:56:43;;;;;;;;;;;;;;;3.38;100.00;102958.03;5115007;28;19935;-76
2024/01/31 01:59:08;;;;;;;;;;;;;;;3.35;100.00;102961.78;5114034;28;19959;-75
2024/01/31 02:01:34;;;;;;;;;;;;;;;3.33;100.00;102955.69;5113227;28;20009;-76
2024/01/31 02:03:59;;;;;;;;;;;;;;;3.35;100.00;102956.44;5114884;28;19920;-75
2024/01/31 02:06:24;;;;;;;;;;;;;;;3.33;100.00;102958.34;5114117;28;19965;-75
2024/01/31 02:08:49;;;;;;;;;;;;;;;3.31;100.00;102950.44;5113335;28;19959;-75
2024/01/31 02:11:15;;;;;;;;;;;;;;;3.36;100.00;102955.47;5107943;28;19916;-76
2024/01/31 02:13:40;;;;;;;;;;;;;;;3.36;100.00;102955.47;5113978;28;20054;-76
2024/01/31 02:16:12;;;;;;;;;;;;;;;3.34;100.00;102949.41;5110813;28;20002;-75
2024/01/31 02:18:37;;;;;;;;;;;;;;;3.28;100.00;102942.63;5114773;28;20002;-75
2024/01/31 02:21:03;;;;;;;;;;;;;;;3.20;100.00;102944.94;5113361;28;20015;-75
2024/01/31 02:23:34;;;;;;;;;;;;;;;3.10;100.00;102942.00;5112286;28;19928;-76
2024/01/31 02:25:59;;;;;;;;;;;;;;;2.96;100.00;102932.22;5109183;28;20630;-75
2024/01/31 02:28:24;;;;;;;;;;;;;;;2.85;100.00;102940.84;5113581;28;19963;-75
2024/01/31 02:30:50;;;;;;;;;;;;;;;2.73;100.00;102941.59;5112978;28;20371;-75
2024/01/31 02:33:15;;;;;;;;;;;;;;;2.63;100.00;102935.16;5111673;28;20481;-75
2024/01/31 02:35:40;;;;;;;;;;;;;;;2.61;100.00;102937.03;5112274;28;19919;-76
2024/01/31 02:38:06;;;;;;;;;;;;;;;2.58;100.00;102938.94;5112783;28;20010;-75
2024/01/31 02:40:31;;;;;;;;;;;;;;;2.65;100.00;102933.25;5113010;28;19924;-75
2024/01/31 02:42:57;;;;;;;;;;;;;;;2.67;100.00;102936.66;5112923;28;19948;-75
2024/01/31 02:45:22;;;;;;;;;;;;;;;2.70;100.00;102932.03;5112857;28;19920;-75
2024/01/31 02:47:47;;;;;;;;;;;;;;;2.73;100.00;102936.28;5113333;28;19999;-75
2024/01/31 02:50:13;;;;;;;;;;;;;;;2.76;100.00;102930.78;5112552;28;19920;-76
2024/01/31 02:52:38;;;;;;;;;;;;;;;2.85;100.00;102924.88;5112848;28;19919;-75
2024/01/31 02:55:04;;;;;;;;;;;;;;;2.84;100.00;102923.19;5113165;28;19920;-75
2024/01/31 02:57:32;;;;;;;;;;;;;;;2.85;100.00;102924.88;5112800;28;19928;-75
2024/01/31 02:59:57;;;;;;;;;;;;;;;3.00;100.00;102944.38;5113050;28;19919;-75
2024/01/31 03:02:22;;;;;;;;;;;;;;;3.07;100.00;102934.22;5113698;28;19927;-75
2024/01/31 03:04:47;;;;;;;;;;;;;;;3.02;100.00;102941.63;5113027;28;19923;-75
2024/01/31 03:07:13;;;;;;;;;;;;;;;2.99;100.00;102947.16;5110865;28;19934;-75
2024/01/31 03:09:38;;;;;;;;;;;;;;;2.99;100.00;102926.69;5112864;28;19920;-75
2024/01/31 03:12:04;;;;;;;;;;;;;;;2.93;100.00;102919.09;5112447;28;19919;-75
2024/01/31 03:14:30;;;;;;;;;;;;;;;2.91;100.00;102913.03;5109153;28;19924;-75
2024/01/31 03:16:55;;;;;;;;;;;;;;;2.92;100.00;102908.56;5112070;28;19945;-75
2024/01/31 03:19:20;;;;;;;;;;;;;;;3.06;100.00;102911.22;5112973;28;19964;-75
2024/01/31 03:21:45;;;;;;;;;;;;;;;3.28;100.00;102915.19;5103861;28;20010;-75
2024/01/31 03:24:11;;;;;;;;;;;;;;;3.36;100.00;102904.03;5112368;28;20374;-75
2024/01/31 03:26:36;;;;;;;;;;;;;;;3.45;100.00;102901.63;5112337;28;20359;-75
2024/01/31 03:29:02;;;;;;;;;;;;;;;3.48;100.00;102896.13;5111930;28;19927;-75
2024/01/31 03:31:30;;;;;;;;;;;;;;;3.52;100.00;102894.09;5112358;28;19920;-75
2024/01/31 03:33:55;;;;;;;;;;;;;;;3.46;100.00;102892.69;5111589;28;19932;-74
2024/01/31 03:36:20;;;;;;;;;;;;;;;3.53;100.00;102894.97;5111903;28;19969;-74
2024/01/31 03:38:46;;;;;;;;;;;;;;;3.59;100.00;102883.91;5112285;28;19919;-74
2024/01/31 03:41:11;;;;;;;;;;;;;;;3.54;100.00;102878.88;5111670;28;19963;-74
2024/01/31 03:43:36;;;;;;;;;;;;;;;3.41;100.00;102892.13;5111993;28;19924;-75
2024/01/31 03:46:05;;;;;;;;;;;;;;;3.26;100.00;102906.44;5111680;28;19920;-76
2024/01/31 03:48:30;;;;;;;;;;;;;;;3.14;100.00;102906.28;5109297;28;19923;-76
2024/01/31 03:50:59;;;;;;;;;;;;;;;3.07;100.00;102904.94;5111441;28;20421;-76
2024/01/31 03:53:25;;;;;;;;;;;;;;;3.04;100.00;102910.44;5110938;28;19920;-76
2024/01/31 03:55:50;;;;;;;;;;;;;;;3.02;100.00;102907.91;5107728;28;20251;-75
2024/01/31 03:58:15;;;;;;;;;;;;;;;2.99;100.00;102902.75;5111721;28;20355;-79
2024/01/31 04:00:41;;;;;;;;;;;;;;;2.99;100.00;102894.78;5110892;28;20439;-79
2024/01/31 04:03:07;;;;;;;;;;;;;;;3.02;100.00;102901.69;5112189;28;19946;-80
2024/01/31 04:05:32;;;;;;;;;;;;;;;3.01;100.00;102902.66;5103485;28;20385;-81
2024/01/31 04:07:57;;;;;;;;;;;;;;;3.02;100.00;102907.03;5109815;28;19920;-81
2024/01/31 04:10:22;;;;;;;;;;;;;;;3.25;100.00;102905.59;5112239;28;19927;-81
2024/01/31 04:12:48;;;;;;;;;;;;;;;3.21;100.00;102908.53;5112217;28;19919;-81
2024/01/31 04:15:13;;;;;;;;;;;;;;;3.22;100.00;102907.56;5109019;28;20333;-81
2024/01/31 04:17:39;;;;;;;;;;;;;;;3.17;100.00;102906.09;5111048;28;20015;-81
2024/01/31 04:20:04;;;;;;;;;;;;;;;3.12;100.00;102910.84;5111527;28;19924;-81
2024/01/31 04:22:29;;;;;;;;;;;;;;;3.31;100.00;102909.66;5110774;28;19957;-81
2024/01/31 04:24:55;;;;;;;;;;;;;;;3.45;100.00;102898.97;5112222;28;19942;-81
2024/01/31 04:27:20;;;;;;;;;;;;;;;3.51;100.00;102889.72;5109475;28;20014;-81
2024/01/31 04:29:46;;;;;;;;;;;;;;;3.57;100.00;102888.47;5105367;28;20350;-81
2024/01/31 04:32:14;;;;;;;;;;;;;;;3.57;100.00;102894.66;5106914;28;20290;-81
2024/01/31 04:34:39;;;;;;;;;;;;;;;3.51;100.00;102889.72;5104066;28;19934;-81
2024/01/31 04:37:04;;;;;;;;;;;;;;;3.57;100.00;102894.66;5110499;28;19920;-81
2024/01/31 04:39:30;;;;;;;;;;;;;;;3.60;100.00;102893.59;5103341;28;19943;-80
2024/01/31 04:41:55;;;;;;;;;;;;;;;3.58;100.00;102896.38;5112066;28;20410;-82
2024/01/31 04:44:20;;;;;;;;;;;;;;;3.39;100.00;102886.06;5110582;28;20367;-80
2024/01/31 04:46:49;;;;;;;;;;;;;;;3.33;100.00;102886.47;5111394;28;20291;-81
2024/01/31 04:49:14;;;;;;;;;;;;;;;3.25;100.00;102894.06;5111155;28;19919;-81
2024/01/31 04:51:43;;;;;;;;;;;;;;;3.16;100.00;102892.84;5110703;28;19916;-82
2024/01/31 04:54:08;;;;;;;;;;;;;;;3.29;100.00;102882.28;5111252;28;19927;-81
2024/01/31 04:56:34;;;;;;;;;;;;;;;3.46;100.00;102878.50;5111442;28;19920;-81
2024/01/31 04:58:59;;;;;;;;;;;;;;;3.52;100.00;102877.28;5111053;28;20419;-81
2024/01/31 05:01:24;;;;;;;;;;;;;;;3.51;100.00;102880.91;5111059;28;19919;-81
2024/01/31 05:03:49;;;;;;;;;;;;;;;3.54;100.00;102876.22;5110729;28;20033;-81
2024/01/31 05:06:15;;;;;;;;;;;;;;;3.52;100.00;102864.81;5110571;28;19959;-81
2024/01/31 05:08:40;;;;;;;;;;;;;;;3.38;100.00;102868.38;5092545;28;20000;-82
2024/01/31 05:11:05;;;;;;;;;;;;;;;3.37;100.00;102866.66;5111508;28;20383;-79
2024/01/31 05:13:30;;;;;;;;;;;;;;;3.33;100.00;102870.50;5110923;28;20410;-78
2024/01/31 05:15:56;;;;;;;;;;;;;;;3.46;100.00;102876.72;5110976;28;20368;-78
2024/01/31 05:18:21;;;;;;;;;;;;;;;3.39;100.00;102875.41;5111232;28;19927;-84
2024/01/31 05:20:47;;;;;;;;;;;;;;;3.28;100.00;102877.91;5092243;28;19920;-78
2024/01/31 05:23:12;;;;;;;;;;;;;;;3.33;100.00;102881.97;5110778;28;19923;-79
2024/01/31 05:25:37;;;;;;;;;;;;;;;3.40;100.00;102884.25;5110207;28;19931;-79
2024/01/31 05:28:03;;;;;;;;;;;;;;;3.34;100.00;102880.19;5110891;28;19920;-79
2024/01/31 05:30:31;;;;;;;;;;;;;;;3.19;100.00;102879.34;5110272;28;19976;-78
2024/01/31 05:32:56;;;;;;;;;;;;;;;3.25;100.00;102883.44;5093042;28;20064;-78
2024/01/31 05:35:21;;;;;;;;;;;;;;;3.37;100.00;102887.94;5110586;28;20014;-78
2024/01/31 05:37:46;;;;;;;;;;;;;;;3.43;100.00;102881.41;5111003;28;20061;-78
2024/01/31 05:40:16;;;;;;;;;;;;;;;3.42;100.00;102880.53;5111136;28;19923;-78
2024/01/31 05:42:41;;;;;;;;;;;;;;;3.54;100.00;102884.22;5102860;28;19925;-78
2024/01/31 05:45:07;;;;;;;;;;;;;;;3.53;100.00;102894.97;5105396;28;19927;-78
2024/01/31 05:47:32;;;;;;;;;;;;;;;3.33;100.00;102889.13;5107842;28;19951;-78
2024/01/31 05:49:57;;;;;;;;;;;;;;;3.23;100.00;102882.66;5112031;28;19927;-78
2024/01/31 05:52:22;;;;;;;;;;;;;;;3.18;100.00;102891.78;5114403;28;19986;-78
2024/01/31 05:54:48;;;;;;;;;;;;;;;3.32;100.00;102888.25;5114452;28;19982;-78
2024/01/31 05:57:13;;;;;;;;;;;;;;;3.25;100.00;102892.28;5114739;28;20435;-78
2024/01/31 05:59:38;;;;;;;;;;;;;;;3.27;100.00;102884.19;5114540;28;20399;-78
2024/01/31 06:02:04;;;;;;;;;;;;;;;3.17;100.00;102876.81;5114299;28;20394;-78
2024/01/31 06:04:35;;;;;;;;;;;;;;;3.21;100.00;102868.59;5114572;28;20010;-78
2024/01/31 06:07:00;;;;;;;;;;;;;;;3.17;100.00;102874.16;5104806;28;20029;-78
2024/01/31 06:09:26;;;;;;;;;;;;;;;3.09;100.00;102873.75;5114597;28;19920;-78
2024/01/31 06:11:51;;;;;;;;;;;;;;;3.08;100.00;102879.19;5114123;28;19984;-78
2024/01/31 06:14:16;;;;;;;;;;;;;;;3.21;100.00;102866.81;5114004;28;19978;-78
2024/01/31 06:16:42;;;;;;;;;;;;;;;3.40;100.00;102866.47;5114725;28;19927;-77
2024/01/31 06:19:08;;;;;;;;;;;;;;;3.32;100.00;102874.09;5114034;28;19932;-78
2024/01/31 06:21:33;;;;;;;;;;;;;;;3.19;100.00;102874.03;5109174;28;19926;-78
2024/01/31 06:23:59;;;;;;;;;;;;;;;3.16;100.00;102875.09;5114534;28;19928;-78
2024/01/31 06:26:26;;;;;;;;;;;;;;;3.27;100.00;102860.22;5114756;28;20030;-77
2024/01/31 06:28:52;;;;;;;;;;;;;;;3.29;100.00;102866.31;5113269;28;19928;-78
2024/01/31 06:31:25;;;;;;;;;;;;;;;3.27;100.00;102862.88;5113916;28;19939;-78
2024/01/31 06:33:50;;;;;;;;;;;;;;;3.42;100.00;102859.22;5114270;28;19927;-78
2024/01/31 06:36:15;;;;;;;;;;;;;;;3.40;100.00;102860.28;5112453;28;20397;-78
2024/01/31 06:38:40;;;;;;;;;;;;;;;3.59;100.00;102854.59;5113515;28;20341;-78
2024/01/31 06:41:06;;;;;;;;;;;;;;;3.65;100.00;102864.88;5113450;28;19920;-77
2024/01/31 06:43:31;;;;;;;;;;;;;;;3.58;100.00;102861.75;5112667;28;19927;-78
2024/01/31 06:45:56;;;;;;;;;;;;;;;3.39;100.00;102864.75;5113235;28;19919;-78
2024/01/31 06:48:23;;;;;;;;;;;;;;;3.27;100.00;102854.91;5113621;28;20336;-78
2024/01/31 06:50:49;;;;;;;;;;;;;;;3.38;100.00;102857.72;5112402;28;20417;-78
2024/01/31 06:53:14;;;;;;;;;;;;;;;3.42;100.00;102855.72;5113623;28;19920;-78
2024/01/31 06:55:39;;;;;;;;;;;;;;;3.45;100.00;102863.50;5113981;28;19923;-78
2024/01/31 06:58:06;;;;;;;;;;;;;;;3.56;100.00;102860.13;5112595;28;20363;-78
2024/01/31 07:00:31;;;;;;;;;;;;;;;3.70;100.00;102845.91;5112686;28;19919;-76
2024/01/31 07:02:59;;;;;;;;;;;;;;;3.78;100.00;102841.78;5113767;28;19923;-78
2024/01/31 07:05:24;;;;;;;;;;;;;;;3.85;100.00;102850.22;5111911;28;20371;-78
2024/01/31 07:07:50;;;;;;;;;;;;;;;3.88;100.00;102854.50;5113121;28;19941;-75
2024/01/31 07:10:15;;;;;;;;;;;;;;;3.88;100.00;102854.50;5112842;28;19920;-78
2024/01/31 07:12:40;;;;;;;;;;;;;;;3.88;100.00;102863.31;5113143;28;19972;-76
2024/01/31 07:15:06;;;;;;;;;;;;;;;3.77;100.00;102864.03;5112613;28;19973;-77
2024/01/31 07:17:31;;;;;;;;;;;;;;;3.84;100.00;102874.31;5112578;28;20457;-77
2024/01/31 07:19:57;;;;;;;;;;;;;;;3.74;100.00;102882.88;5112396;28;19932;-77
2024/01/31 07:22:22;;;;;;;;;;;;;;;3.66;100.00;102898.53;5112932;28;19930;-77
2024/01/31 07:24:50;;;;;;;;;;;;;;;3.60;100.00;102912.25;5112971;28;19932;-77
2024/01/31 07:27:15;;;;;;;;;;;;;;;3.67;100.00;102924.22;5112691;28;19992;-77
2024/01/31 07:29:44;;;;;;;;;;;;;;;3.55;100.00;102927.66;5111628;28;20617;-77
2024/01/31 07:32:09;;;;;;;;;;;;;;;3.46;100.00;102929.97;5112458;28;20412;-77
2024/01/31 07:34:34;;;;;;;;;;;;;;;3.41;100.00;102942.72;5112333;28;20436;-76
2024/01/31 07:37:03;;;;;;;;;;;;;;;3.39;100.00;102952.59;5111976;28;20444;-76
2024/01/31 07:39:29;;;;;;;;;;;;;;;3.35;100.00;102953.78;5113153;28;19919;-77
2024/01/31 07:41:54;;;;;;;;;;;;;;;3.33;100.00;102951.19;5111431;28;19920;-77
2024/01/31 07:44:19;;;;;;;;;;;;;;;3.32;100.00;102954.81;5112131;28;19923;-77
2024/01/31 07:46:44;;;;;;;;;;;;;;;3.34;100.00;102960.06;5112278;28;19927;-77
2024/01/31 07:49:09;;;;;;;;;;;;;;;3.36;100.00;102968.78;5111569;28;20014;-77
2024/01/31 07:51:41;;;;;;;;;;;;;;;3.37;100.00;102967.81;5103825;28;19988;-77
2024/01/31 07:54:06;;;;;;;;;;;;;;;3.40;100.00;102972.97;5112195;28;19943;-77
2024/01/31 07:56:31;;;;;;;;;;;;;;;3.44;100.00;102973.63;5111216;28;20024;-77
2024/01/31 07:58:57;;;;;;;;;;;;;;;3.41;100.00;102974.66;5112429;28;19959;-77
2024/01/31 08:01:25;;;;;;;;;;;;;;;3.39;100.00;102976.56;5110659;28;20022;-77
2024/01/31 08:03:50;;;;;;;;;;;;;;;3.40;100.00;102974.78;5112178;28;19923;-77
2024/01/31 08:06:15;;;;;;;;;;;;;;;3.43;100.00;102978.09;5111457;28;19969;-77
2024/01/31 08:08:42;;;;;;;;;;;;;;;3.57;100.00;102984.34;5112122;28;19920;-77
2024/01/31 08:11:07;;;;;;;;;;;;;;;3.54;100.00;102973.88;5112061;28;19962;-77
2024/01/31 08:13:34;;;;;;;;;;;;;;;3.53;100.00;102977.53;5110611;28;20468;-77
2024/01/31 08:15:59;;;;;;;;;;;;;;;3.60;100.00;102973.50;5112425;28;20413;-77
2024/01/31 08:18:24;;;;;;;;;;;;;;;3.62;100.00;102983.09;5111387;28;20477;-77
2024/01/31 08:20:49;;;;;;;;;;;;;;;3.59;100.00;102987.78;5111123;28;20401;-77
2024/01/31 08:23:15;;;;;;;;;;;;;;;3.59;100.00;102982.44;5112204;28;20387;-77
2024/01/31 08:25:40;;;;;;;;;;;;;;;3.83;100.00;102979.16;5111647;28;19927;-77
2024/01/31 08:28:05;;;;;;;;;;;;;;;4.01;100.00;102971.75;5110753;28;20367;-77
2024/01/31 08:30:31;;;;;;;;;;;;;;;3.95;100.00;102975.69;5111843;28;19926;-77
2024/01/31 08:32:57;;;;;;;;;;;;;;;4.00;100.00;102965.59;5111356;28;19941;-77
2024/01/31 08:35:22;;;;;;;;;;;;;;;4.08;100.00;102963.25;5110655;28;19976;-77
2024/01/31 08:37:48;;;;;;;;;;;;;;;4.09;100.00;102964.97;5111375;28;20014;-77
2024/01/31 08:40:14;;;;;;;;;;;;;;;4.12;100.00;102963.06;5112024;28;19920;-78
2024/01/31 08:42:40;;;;;;;;;;;;;;;4.20;100.00;102961.59;5110407;28;19927;-77
2024/01/31 08:45:06;;;;;;;;;;;;;;;4.17;100.00;102958.28;5111530;28;19934;-77
2024/01/31 08:47:31;;;;;;;;;;;;;;;4.25;100.00;102953.28;5111683;28;20006;-78
2024/01/31 08:49:57;;;;;;;;;;;;;;;4.26;100.00;102957.66;5110641;28;20006;-77
2024/01/31 08:52:22;;;;;;;;;;;;;;;4.30;100.00;102951.16;5111895;28;19966;-77
2024/01/31 08:54:47;;;;;;;;;;;;;;;4.33;100.00;102948.28;5111848;28;20109;-78
2024/01/31 08:57:12;;;;;;;;;;;;;;;4.37;100.00;102947.13;5110516;28;19950;-78
2024/01/31 08:59:38;;;;;;;;;;;;;;;4.41;100.00;102942.44;5111586;28;20283;-78
2024/01/31 09:02:03;;;;;;;;;;;;;;;4.30;100.00;102929.00;5111375;28;20291;-78
2024/01/31 09:04:29;;;;;;;;;;;;;;;4.39;100.00;102929.22;5110551;28;19941;-78
2024/01/31 09:06:54;;;;;;;;;;;;;;;4.50;100.00;102920.47;5111450;28;20411;-78
2024/01/31 09:09:19;;;;;;;;;;;;;;;4.50;100.00;102930.28;5112027;28;20353;-78
2024/01/31 09:11:44;;;;;;;;;;;;;;;4.51;100.00;102934.66;5110586;28;20317;-78
2024/01/31 09:14:10;;;;;;;;;;;;;;;4.59;100.00;102920.78;5111140;28;20397;-78
2024/01/31 09:16:35;;;;;;;;;;;;;;;4.60;100.00;102920.69;5111851;28;20337;-78
2024/01/31 09:19:01;;;;;;;;;;;;;;;4.59;100.00;102918.97;5110387;28;19919;-78
2024/01/31 09:21:27;;;;;;;;;;;;;;;4.63;100.00;102915.13;5111234;28;19920;-78
2024/01/31 09:23:55;;;;;;;;;;;;;;;4.66;100.00;102909.59;5112392;28;20344;-78
2024/01/31 09:26:20;;;;;;;;;;;;;;;4.67;100.00;102910.47;5114294;28;20400;-78
2024/01/31 09:28:45;;;;;;;;;;;;;;;4.69;100.00;102901.38;5114797;28;19999;-77
2024/01/31 09:31:10;;;;;;;;;;;;;;;4.69;100.00;102912.06;5115293;28;20329;-77
2024/01/31 09:33:36;;;;;;;;;;;;;;;4.72;100.00;102912.81;5114377;28;19942;-77
2024/01/31 09:36:01;;;;;;;;;;;;;;;4.66;100.00;102917.59;5114686;28;19920;-77
2024/01/31 09:38:26;;;;;;;;;;;;;;;4.65;100.00;102915.88;5115263;28;19920;-76
2024/01/31 09:40:52;;;;;;;;;;;;;;;4.77;100.00;102921.31;5114333;28;20282;-76
2024/01/31 09:43:17;;;;;;;;;;;;;;;4.82;100.00;102919.19;5114615;28;19920;-77
2024/01/31 09:45:42;;;;;;;;;;;;;;;4.81;100.00;102915.69;5114613;28;19924;-76
2024/01/31 09:48:08;;;;;;;;;;;;;;;4.86;100.00;102910.00;5096064;28;20279;-77
2024/01/31 09:50:33;;;;;;;;;;;;;;;4.85;100.00;102918.97;5095841;28;19974;-77
2024/01/31 09:52:58;;;;;;;;;;;;;;;4.83;100.00;102908.44;5114459;28;19920;-77
2024/01/31 09:55:26;;;;;;;;;;;;;;;4.94;100.00;102896.13;5107671;28;20224;-77
2024/01/31 09:57:54;;;;;;;;;;;;;;;5.05;100.00;102906.03;5113167;28;20320;-77
2024/01/31 10:00:19;;;;;;;;;;;;;;;5.09;100.00;102894.19;5113867;28;19923;-77
2024/01/31 10:02:47;;;;;;;;;;;;;;;5.07;100.00;102882.75;5114205;28;19927;-77
2024/01/31 10:05:13;;;;;;;;;;;;;;;5.13;100.00;102877.84;5095895;28;19981;-77
2024/01/31 10:07:40;;;;;;;;;;;;;;;5.19;100.00;102878.38;5113870;28;19969;-77
2024/01/31 10:10:06;;;;;;;;;;;;;;;5.27;100.00;102874.16;5114493;28;19919;-77
2024/01/31 10:12:31;;;;;;;;;;;;;;;5.25;100.00;102881.44;5114279;28;19949;-77
2024/01/31 10:14:56;;;;;;;;;;;;;;;5.38;100.00;102877.84;5113413;28;20102;-77
2024/01/31 10:17:21;;;;;;;;;;;;;;;5.37;100.00;102876.16;5114209;28;19930;-77
2024/01/31 10:19:49;;;;;;;;;;;;;;;5.39;100.00;102875.06;5113926;28;20006;-76
2024/01/31 10:22:15;;;;;;;;;;;;;;;5.55;100.00;102877.47;5105928;28;19926;-76
2024/01/31 10:24:50;;;;;;;;;;;;;;;5.57;100.00;102878.22;5114326;28;20003;-76
2024/01/31 10:27:17;;;;;;;;;;;;;;;5.60;100.00;102883.34;5104848;28;19922;-76
2024/01/31 10:29:42;;;;;;;;;;;;;;;5.65;100.00;102874.97;5113907;28;19920;-76
2024/01/31 10:32:08;;;;;;;;;;;;;;;5.70;100.00;102877.28;5112779;28;19916;-77
2024/01/31 10:34:34;;;;;;;;;;;;;;;5.62;100.00;102877.88;5112633;28;19920;-77
2024/01/31 10:37:02;;;;;;;;;;;;;;;5.65;100.00;102879.47;5113459;28;20367;-77
2024/01/31 10:39:28;;;;;;;;;;;;;;;5.70;100.00;102872.81;5114332;28;19924;-77
2024/01/31 10:41:53;;;;;;;;;;;;;;;5.68;100.00;102866.72;5118886;28;20440;-77
2024/01/31 10:44:18;;;;;;;;;;;;;;;5.72;100.00;102867.34;5101332;28;20604;-77
2024/01/31 10:46:46;;;;;;;;;;;;;;;5.79;100.00;102870.41;5095028;28;20390;-77
2024/01/31 10:49:13;;;;;;;;;;;;;;;5.82;100.00;102860.34;5113410;28;19945;-77
2024/01/31 10:51:38;;;;;;;;;;;;;;;5.94;100.00;102871.91;5113721;28;20020;-76
2024/01/31 10:54:04;;;;;;;;;;;;;;;6.01;100.00;102872.34;5124042;28;19927;-77
2024/01/31 10:56:29;;;;;;;;;;;;;;;6.05;100.00;102873.81;5099457;28;19924;-77
2024/01/31 10:59:05;;;;;;;;;;;;;;;6.01;100.00;102873.19;5095453;28;19946;-77
2024/01/31 11:01:30;;;;;;;;;;;;;;;5.89;100.00;102871.44;5113866;28;19923;-77
2024/01/31 11:03:55;;;;;;;;;;;;;;;5.87;100.00;102871.53;5112887;28;19919;-77
2024/01/31 11:06:23;;;;;;;;;;;;;;;5.80;100.00;102872.97;5112925;28;19919;-77
2024/01/31 11:08:48;;;;;;;;;;;;;;;5.80;100.00;102856.94;5113634;28;19920;-77
2024/01/31 11:11:13;;;;;;;;;;;;;;;5.73;100.00;102861.91;5112310;28;19927;-77
2024/01/31 11:13:38;;;;;;;;;;;;;;;5.78;100.00;102845.50;5094469;28;19927;-77
2024/01/31 11:16:04;;;;;;;;;;;;;;;5.73;100.00;102840.53;5113584;28;20398;-77
2024/01/31 11:18:29;;;;;;;;;;;;;;;5.74;100.00;102841.38;5110361;28;19997;-78
2024/01/31 11:20:54;;;;;;;;;;;;;;;5.81;100.00;102823.91;5113024;28;19920;-76
2024/01/31 11:23:20;;;;;;;;;;;;;;;5.79;100.00;102830.31;5112645;28;20287;-76
2024/01/31 11:26:05;;;;;;;;;;;;;;;5.74;100.00;102820.81;5112812;28;19919;-77
2024/01/31 11:28:31;;;;;;;;;;;;;;;5.64;100.00;102810.97;5112006;28;19923;-77
2024/01/31 11:30:56;;;;;;;;;;;;;;;5.63;100.00;102814.59;5113039;28;20358;-77
2024/01/31 11:33:21;;;;;;;;;;;;;;;5.66;100.00;102801.00;5089542;28;20326;-77
2024/01/31 11:35:46;;;;;;;;;;;;;;;5.71;100.00;102790.81;5111099;28;19924;-77
2024/01/31 11:38:12;;;;;;;;;;;;;;;5.73;100.00;102791.56;5112130;28;19919;-76
2024/01/31 11:40:37;;;;;;;;;;;;;;;5.78;100.00;102778.69;5111819;28;19923;-77
2024/01/31 11:43:03;;;;;;;;;;;;;;;5.73;100.00;102772.84;5112412;28;19923;-77
2024/01/31 11:45:28;;;;;;;;;;;;;;;5.88;100.00;102763.66;5112279;28;19920;-77
2024/01/31 11:47:53;;;;;;;;;;;;;;;5.86;100.00;102757.56;5111431;28;19988;-77
2024/01/31 11:50:19;;;;;;;;;;;;;;;5.89;100.00;102753.81;5112039;28;19968;-77
2024/01/31 11:52:44;;;;;;;;;;;;;;;5.91;100.00;102749.22;5112598;28;19927;-77
2024/01/31 11:57:35;;;;;;;;;;;;;;;6.01;100.00;102730.63;5099469;22;19928;-76
2024/01/31 12:00:00;;;;;;;;;;;;;;;6.03;100.00;102718.88;5074130;28;19927;-77
2024/01/31 12:02:26;;;;;;;;;;;;;;;6.06;100.00;102717.75;5091504;28;19982;-77
2024/01/31 12:04:54;;;;;;;;;;;;;;;6.05;100.00;102708.03;5091461;28;19920;-77
2024/01/31 12:07:20;;;;;;;;;;;;;;;6.09;100.00;102698.81;5091792;28;19920;-77
2024/01/31 12:09:45;;;;;;;;;;;;;;;6.07;100.00;102693.59;5091526;28;20334;-77
2024/01/31 12:12:11;;;;;;;;;;;;;;;6.06;100.00;102696.38;5091365;28;19931;-77
2024/01/31 12:14:36;;;;;;;;;;;;;;;6.05;100.00;102684.84;5073503;28;19920;-77
2024/01/31 12:17:03;;;;;;;;;;;;;;;6.03;100.00;102685.91;5090299;28;20325;-75
2024/01/31 12:19:29;;;;;;;;;;;;;;;6.00;100.00;102680.84;5091395;28;20020;-78
2024/01/31 12:21:54;;;;;;;;;;;;;;;6.02;100.00;102678.88;5091521;28;19920;-78
2024/01/31 12:24:20;;;;;;;;;;;;;;;6.03;100.00;102680.56;5091478;28;19970;-78
2024/01/31 12:26:45;;;;;;;;;;;;;;;6.02;100.00;102666.38;5091046;28;19982;-78
2024/01/31 12:29:10;;;;;;;;;;;;;;;5.94;100.00;102675.94;5092040;28;19970;-76